Date,TemperatureHighF,TemperatureAvgF,TemperatureLowF,DewpointHighF,DewpointAvgF,DewpointLowF,HumidityHigh,HumidityAvg,HumidityLow,PressureMaxIn,PressureMinIn,WindSpeedMaxMPH,WindSpeedAvgMPH,GustSpeedMaxMPH,PrecipitationSumIn
2013-3-1,72,61,52,28,20,14,27,20,14,30.33,30.17,8,2,11,0.00
2013-3-2,74,63,55,29,22,14,29,21,10,30.23,30.05,9,2,12,0.00
2013-3-3,67,57,45,39,28,17,72,35,20,30.06,29.92,7,1,9,0.00
2013-3-4,60,49,42,47,42,36,96,79,58,30.10,29.94,7,1,9,0.00
2013-3-5,64,53,44,49,42,37,96,68,39,30.08,29.97,8,1,11,0.01
2013-3-6,52,44,40,44,40,38,97,86,63,30.10,30.00,7,1,10,0.02
2013-3-7,47,42,37,43,40,33,95,90,73,30.02,29.86,6,1,8,0.21
2013-3-8,43,37,33,37,34,32,95,90,71,30.06,29.76,9,1,17,1.27
2013-3-9,50,42,37,42,38,35,96,87,69,30.22,30.04,12,1,12,0.18
2013-3-10,65,52,38,37,29,19,90,47,23,30.29,30.17,7,1,11,0.00
2013-3-11,70,58,50,37,24,11,49,28,15,30.20,30.03,5,1,8,0.00
2013-3-12,77,64,52,40,28,19,45,27,16,30.08,29.99,7,2,9,0.00
2013-3-13,81,68,59,42,32,26,38,26,16,30.08,29.99,10,3,10,0.00
2013-3-14,84,71,62,42,33,24,41,25,14,30.05,29.95,10,2,11,0.00
2013-3-15,77,68,58,41,35,21,45,30,20,29.97,29.86,7,1,10,0.00
2013-3-16,70,60,50,46,37,26,80,44,27,29.89,29.81,8,1,12,0.00
2013-3-17,66,55,44,48,44,38,88,68,41,29.94,29.83,7,1,9,0.00
2013-3-18,63,51,39,49,45,37,96,81,59,30.06,29.92,8,1,10,0.00
2013-3-19,64,53,45,50,45,42,96,78,49,30.09,30.00,6,1,10,0.00
2013-3-20,64,57,50,49,44,36,91,63,37,30.08,29.92,8,1,10,0.00
2013-3-21,65,54,45,48,46,43,94,75,50,29.92,29.77,9,1,12,0.00
2013-3-22,67,53,43,48,44,38,94,75,35,29.89,29.74,9,1,14,0.00
2013-3-23,70,56,44,47,33,14,93,49,12,29.98,29.86,11,1,15,0.00
2013-3-24,72,59,50,43,32,21,59,39,16,29.97,29.85,9,2,12,0.00
2013-3-25,74,62,53,44,34,24,66,38,21,29.94,29.85,8,1,11,0.00
2013-3-26,56,55,53,40,37,34,60,52,46,29.89,29.85,2,1,3,0.00
2013-3-27,66,56,46,46,41,35,87,61,39,30.01,29.86,9,2,10,0.00
2013-3-28,69,57,46,46,42,33,89,60,28,30.05,29.96,11,2,15,0.00
2013-3-29,72,61,51,50,42,34,87,51,30,30.06,29.98,8,1,11,0.00
2013-3-30,69,59,49,50,44,37,90,60,36,30.06,29.97,11,2,11,0.00
2013-3-31,62,53,46,50,44,36,91,73,54,30.07,29.98,11,2,14,0.00